sensor_id;sensor_type;location;lat;lon;timestamp;pressure;altitude;pressure_sealevel;temperature
11849;BMP180;5983;49.966;8.052;2023-04-24T00:01:02;99326.00;;;12.10
11849;BMP180;5983;49.966;8.052;2023-04-24T00:03:29;99326.00;;;12.00
11849;BMP180;5983;49.966;8.052;2023-04-24T00:05:55;99332.00;;;12.00
11849;BMP180;5983;49.966;8.052;2023-04-24T00:08:24;99327.00;;;12.00
11849;BMP180;5983;49.966;8.052;2023-04-24T00:10:51;99332.00;;;11.90
11849;BMP180;5983;49.966;8.052;2023-04-24T00:13:18;99324.00;;;11.90
11849;BMP180;5983;49.966;8.052;2023-04-24T00:15:45;99310.00;;;11.90
11849;BMP180;5983;49.966;8.052;2023-04-24T00:18:13;99307.00;;;11.90
11849;BMP180;5983;49.966;8.052;2023-04-24T00:20:40;99300.00;;;11.90
11849;BMP180;5983;49.966;8.052;2023-04-24T00:23:09;99308.00;;;11.90
11849;BMP180;5983;49.966;8.052;2023-04-24T00:25:35;99299.00;;;11.90
11849;BMP180;5983;49.966;8.052;2023-04-24T00:28:02;99298.00;;;11.90
11849;BMP180;5983;49.966;8.052;2023-04-24T00:30:29;99289.00;;;11.90
11849;BMP180;5983;49.966;8.052;2023-04-24T00:32:56;99288.00;;;11.80
11849;BMP180;5983;49.966;8.052;2023-04-24T00:35:24;99287.00;;;11.80
11849;BMP180;5983;49.966;8.052;2023-04-24T00:37:51;99284.00;;;11.80
11849;BMP180;5983;49.966;8.052;2023-04-24T00:40:18;99273.00;;;11.80
11849;BMP180;5983;49.966;8.052;2023-04-24T00:42:45;99283.00;;;11.70
11849;BMP180;5983;49.966;8.052;2023-04-24T00:45:12;99272.00;;;11.70
11849;BMP180;5983;49.966;8.052;2023-04-24T00:47:39;99269.00;;;11.70
11849;BMP180;5983;49.966;8.052;2023-04-24T00:50:07;99265.00;;;11.70
11849;BMP180;5983;49.966;8.052;2023-04-24T00:52:35;99256.00;;;11.70
11849;BMP180;5983;49.966;8.052;2023-04-24T00:55:03;99264.00;;;11.70
11849;BMP180;5983;49.966;8.052;2023-04-24T00:57:30;99251.00;;;11.70
11849;BMP180;5983;49.966;8.052;2023-04-24T00:59:57;99259.00;;;11.70
11849;BMP180;5983;49.966;8.052;2023-04-24T01:02:24;99256.00;;;11.70
11849;BMP180;5983;49.966;8.052;2023-04-24T01:04:51;99259.00;;;11.70
11849;BMP180;5983;49.966;8.052;2023-04-24T01:07:19;99260.00;;;11.70
11849;BMP180;5983;49.966;8.052;2023-04-24T01:09:48;99267.00;;;11.70
11849;BMP180;5983;49.966;8.052;2023-04-24T01:12:17;99253.00;;;11.80
11849;BMP180;5983;49.966;8.052;2023-04-24T01:14:44;99256.00;;;11.80
11849;BMP180;5983;49.966;8.052;2023-04-24T01:17:11;99268.00;;;11.80
11849;BMP180;5983;49.966;8.052;2023-04-24T01:19:37;99267.00;;;11.90
11849;BMP180;5983;49.966;8.052;2023-04-24T01:22:10;99264.00;;;11.90
11849;BMP180;5983;49.966;8.052;2023-04-24T01:24:38;99265.00;;;11.90
11849;BMP180;5983;49.966;8.052;2023-04-24T01:27:04;99266.00;;;11.90
11849;BMP180;5983;49.966;8.052;2023-04-24T01:29:31;99281.00;;;12.00
11849;BMP180;5983;49.966;8.052;2023-04-24T01:31:58;99280.00;;;12.00
11849;BMP180;5983;49.966;8.052;2023-04-24T01:34:25;99282.00;;;12.00
11849;BMP180;5983;49.966;8.052;2023-04-24T01:36:52;99297.00;;;12.00
11849;BMP180;5983;49.966;8.052;2023-04-24T01:39:20;99286.00;;;12.10
11849;BMP180;5983;49.966;8.052;2023-04-24T01:41:48;99283.00;;;12.10
11849;BMP180;5983;49.966;8.052;2023-04-24T01:44:16;99284.00;;;12.10
11849;BMP180;5983;49.966;8.052;2023-04-24T01:46:43;99289.00;;;12.10
11849;BMP180;5983;49.966;8.052;2023-04-24T01:49:10;99293.00;;;12.10
11849;BMP180;5983;49.966;8.052;2023-04-24T01:51:37;99283.00;;;12.10
11849;BMP180;5983;49.966;8.052;2023-04-24T01:54:04;99289.00;;;12.10
11849;BMP180;5983;49.966;8.052;2023-04-24T01:56:33;99292.00;;;12.10
11849;BMP180;5983;49.966;8.052;2023-04-24T01:59:02;99291.00;;;12.10
11849;BMP180;5983;49.966;8.052;2023-04-24T02:01:33;99290.00;;;12.10
11849;BMP180;5983;49.966;8.052;2023-04-24T02:04:01;99306.00;;;12.10
11849;BMP180;5983;49.966;8.052;2023-04-24T02:06:27;99296.00;;;12.10
11849;BMP180;5983;49.966;8.052;2023-04-24T02:08:54;99300.00;;;12.10
11849;BMP180;5983;49.966;8.052;2023-04-24T02:11:21;99307.00;;;12.10
11849;BMP180;5983;49.966;8.052;2023-04-24T02:13:49;99315.00;;;12.10
11849;BMP180;5983;49.966;8.052;2023-04-24T02:16:17;99295.00;;;12.10
11849;BMP180;5983;49.966;8.052;2023-04-24T02:18:44;99299.00;;;12.10
11849;BMP180;5983;49.966;8.052;2023-04-24T02:21:11;99314.00;;;12.10
11849;BMP180;5983;49.966;8.052;2023-04-24T02:23:37;99316.00;;;12.10
11849;BMP180;5983;49.966;8.052;2023-04-24T02:26:04;99323.00;;;12.10
11849;BMP180;5983;49.966;8.052;2023-04-24T02:28:31;99317.00;;;12.10
11849;BMP180;5983;49.966;8.052;2023-04-24T02:30:59;99315.00;;;12.10
11849;BMP180;5983;49.966;8.052;2023-04-24T02:33:26;99318.00;;;12.10
11849;BMP180;5983;49.966;8.052;2023-04-24T02:35:53;99325.00;;;12.10
11849;BMP180;5983;49.966;8.052;2023-04-24T02:38:19;99314.00;;;12.10
11849;BMP180;5983;49.966;8.052;2023-04-24T02:40:46;99319.00;;;12.10
11849;BMP180;5983;49.966;8.052;2023-04-24T02:43:13;99327.00;;;12.20
11849;BMP180;5983;49.966;8.052;2023-04-24T02:45:40;99322.00;;;12.20
11849;BMP180;5983;49.966;8.052;2023-04-24T02:48:08;99324.00;;;12.10
11849;BMP180;5983;49.966;8.052;2023-04-24T02:50:34;99315.00;;;12.10
11849;BMP180;5983;49.966;8.052;2023-04-24T02:53:01;99318.00;;;12.10
11849;BMP180;5983;49.966;8.052;2023-04-24T02:55:28;99313.00;;;12.10
11849;BMP180;5983;49.966;8.052;2023-04-24T02:57:55;99324.00;;;12.10
11849;BMP180;5983;49.966;8.052;2023-04-24T03:00:22;99326.00;;;12.10
11849;BMP180;5983;49.966;8.052;2023-04-24T03:02:49;99323.00;;;12.00
11849;BMP180;5983;49.966;8.052;2023-04-24T03:05:17;99326.00;;;12.00
11849;BMP180;5983;49.966;8.052;2023-04-24T03:07:44;99326.00;;;12.00
11849;BMP180;5983;49.966;8.052;2023-04-24T03:10:11;99338.00;;;11.90
11849;BMP180;5983;49.966;8.052;2023-04-24T03:12:37;99329.00;;;11.90
11849;BMP180;5983;49.966;8.052;2023-04-24T03:15:05;99332.00;;;11.90
11849;BMP180;5983;49.966;8.052;2023-04-24T03:17:32;99332.00;;;11.90
11849;BMP180;5983;49.966;8.052;2023-04-24T03:19:58;99339.00;;;11.90
11849;BMP180;5983;49.966;8.052;2023-04-24T03:22:26;99341.00;;;11.90
11849;BMP180;5983;49.966;8.052;2023-04-24T03:24:53;99347.00;;;11.90
11849;BMP180;5983;49.966;8.052;2023-04-24T03:27:22;99363.00;;;11.90
11849;BMP180;5983;49.966;8.052;2023-04-24T03:29:49;99353.00;;;11.90
11849;BMP180;5983;49.966;8.052;2023-04-24T03:32:19;99364.00;;;11.90
11849;BMP180;5983;49.966;8.052;2023-04-24T03:34:46;99364.00;;;11.90
11849;BMP180;5983;49.966;8.052;2023-04-24T03:37:12;99366.00;;;11.90
11849;BMP180;5983;49.966;8.052;2023-04-24T03:39:40;99371.00;;;11.90
11849;BMP180;5983;49.966;8.052;2023-04-24T03:42:07;99373.00;;;11.80
11849;BMP180;5983;49.966;8.052;2023-04-24T03:44:34;99382.00;;;11.80
11849;BMP180;5983;49.966;8.052;2023-04-24T03:47:01;99372.00;;;11.70
11849;BMP180;5983;49.966;8.052;2023-04-24T03:49:28;99371.00;;;11.60
11849;BMP180;5983;49.966;8.052;2023-04-24T03:51:54;99371.00;;;11.60
11849;BMP180;5983;49.966;8.052;2023-04-24T03:54:21;99369.00;;;11.50
11849;BMP180;5983;49.966;8.052;2023-04-24T03:56:49;99376.00;;;11.40
11849;BMP180;5983;49.966;8.052;2023-04-24T03:59:16;99375.00;;;11.30
11849;BMP180;5983;49.966;8.052;2023-04-24T04:01:43;99382.00;;;11.30
11849;BMP180;5983;49.966;8.052;2023-04-24T04:04:10;99390.00;;;11.20
11849;BMP180;5983;49.966;8.052;2023-04-24T04:06:37;99384.00;;;11.20
11849;BMP180;5983;49.966;8.052;2023-04-24T04:09:04;99388.00;;;11.00
11849;BMP180;5983;49.966;8.052;2023-04-24T04:11:31;99384.00;;;11.00
11849;BMP180;5983;49.966;8.052;2023-04-24T04:13:59;99395.00;;;10.90
11849;BMP180;5983;49.966;8.052;2023-04-24T04:16:25;99387.00;;;10.80
11849;BMP180;5983;49.966;8.052;2023-04-24T04:18:52;99389.00;;;10.80
11849;BMP180;5983;49.966;8.052;2023-04-24T04:21:19;99395.00;;;10.80
11849;BMP180;5983;49.966;8.052;2023-04-24T04:23:46;99395.00;;;10.70
11849;BMP180;5983;49.966;8.052;2023-04-24T04:26:13;99403.00;;;10.70
11849;BMP180;5983;49.966;8.052;2023-04-24T04:28:40;99418.00;;;10.70
11849;BMP180;5983;49.966;8.052;2023-04-24T04:31:08;99418.00;;;10.60
11849;BMP180;5983;49.966;8.052;2023-04-24T04:33:35;99414.00;;;10.60
11849;BMP180;5983;49.966;8.052;2023-04-24T04:36:03;99413.00;;;10.50
11849;BMP180;5983;49.966;8.052;2023-04-24T04:38:30;99420.00;;;10.50
11849;BMP180;5983;49.966;8.052;2023-04-24T04:40:57;99420.00;;;10.50
11849;BMP180;5983;49.966;8.052;2023-04-24T04:43:24;99422.00;;;10.40
11849;BMP180;5983;49.966;8.052;2023-04-24T04:45:52;99423.00;;;10.40
11849;BMP180;5983;49.966;8.052;2023-04-24T04:48:21;99425.00;;;10.40
11849;BMP180;5983;49.966;8.052;2023-04-24T04:50:48;99430.00;;;10.40
11849;BMP180;5983;49.966;8.052;2023-04-24T04:53:15;99432.00;;;10.30
11849;BMP180;5983;49.966;8.052;2023-04-24T04:55:41;99442.00;;;10.30
11849;BMP180;5983;49.966;8.052;2023-04-24T04:58:08;99438.00;;;10.30
11849;BMP180;5983;49.966;8.052;2023-04-24T05:00:35;99455.00;;;10.30
11849;BMP180;5983;49.966;8.052;2023-04-24T05:03:03;99451.00;;;10.30
11849;BMP180;5983;49.966;8.052;2023-04-24T05:05:31;99452.00;;;10.30
11849;BMP180;5983;49.966;8.052;2023-04-24T05:07:57;99460.00;;;10.30
11849;BMP180;5983;49.966;8.052;2023-04-24T05:10:24;99450.00;;;10.40
11849;BMP180;5983;49.966;8.052;2023-04-24T05:12:51;99450.00;;;10.50
11849;BMP180;5983;49.966;8.052;2023-04-24T05:15:17;99447.00;;;10.50
11849;BMP180;5983;49.966;8.052;2023-04-24T05:17:44;99461.00;;;10.60
11849;BMP180;5983;49.966;8.052;2023-04-24T05:20:11;99442.00;;;10.60
11849;BMP180;5983;49.966;8.052;2023-04-24T05:22:39;99449.00;;;10.60
11849;BMP180;5983;49.966;8.052;2023-04-24T05:25:07;99442.00;;;10.60
11849;BMP180;5983;49.966;8.052;2023-04-24T05:27:34;99445.00;;;10.70
11849;BMP180;5983;49.966;8.052;2023-04-24T05:30:00;99460.00;;;10.70
11849;BMP180;5983;49.966;8.052;2023-04-24T05:32:27;99459.00;;;10.70
11849;BMP180;5983;49.966;8.052;2023-04-24T05:34:54;99466.00;;;10.70
11849;BMP180;5983;49.966;8.052;2023-04-24T05:37:20;99481.00;;;10.80
11849;BMP180;5983;49.966;8.052;2023-04-24T05:39:48;99472.00;;;11.00
11849;BMP180;5983;49.966;8.052;2023-04-24T05:42:15;99485.00;;;11.10
11849;BMP180;5983;49.966;8.052;2023-04-24T05:44:42;99492.00;;;11.20
11849;BMP180;5983;49.966;8.052;2023-04-24T05:47:09;99489.00;;;11.20
11849;BMP180;5983;49.966;8.052;2023-04-24T05:49:35;99498.00;;;11.20
11849;BMP180;5983;49.966;8.052;2023-04-24T05:52:02;99504.00;;;11.20
11849;BMP180;5983;49.966;8.052;2023-04-24T05:54:30;99508.00;;;11.20
11849;BMP180;5983;49.966;8.052;2023-04-24T05:56:58;99508.00;;;11.30
11849;BMP180;5983;49.966;8.052;2023-04-24T05:59:27;99513.00;;;11.30
11849;BMP180;5983;49.966;8.052;2023-04-24T06:01:54;99513.00;;;11.40
11849;BMP180;5983;49.966;8.052;2023-04-24T06:04:21;99515.00;;;11.40
11849;BMP180;5983;49.966;8.052;2023-04-24T06:06:48;99513.00;;;11.40
11849;BMP180;5983;49.966;8.052;2023-04-24T06:09:21;99521.00;;;11.40
11849;BMP180;5983;49.966;8.052;2023-04-24T06:11:48;99516.00;;;11.50
11849;BMP180;5983;49.966;8.052;2023-04-24T06:14:16;99527.00;;;11.50
11849;BMP180;5983;49.966;8.052;2023-04-24T06:16:43;99524.00;;;11.70
11849;BMP180;5983;49.966;8.052;2023-04-24T06:19:10;99526.00;;;11.90
11849;BMP180;5983;49.966;8.052;2023-04-24T06:21:36;99527.00;;;12.10
11849;BMP180;5983;49.966;8.052;2023-04-24T06:24:03;99530.00;;;12.30
11849;BMP180;5983;49.966;8.052;2023-04-24T06:26:30;99531.00;;;12.60
11849;BMP180;5983;49.966;8.052;2023-04-24T06:28:57;99532.00;;;12.80
11849;BMP180;5983;49.966;8.052;2023-04-24T06:31:27;99529.00;;;12.80
11849;BMP180;5983;49.966;8.052;2023-04-24T06:33:53;99543.00;;;12.80
11849;BMP180;5983;49.966;8.052;2023-04-24T06:36:20;99557.00;;;13.00
11849;BMP180;5983;49.966;8.052;2023-04-24T06:38:47;99541.00;;;13.10
11849;BMP180;5983;49.966;8.052;2023-04-24T06:41:14;99548.00;;;13.10
11849;BMP180;5983;49.966;8.052;2023-04-24T06:43:40;99552.00;;;13.10
11849;BMP180;5983;49.966;8.052;2023-04-24T06:46:07;99563.00;;;13.30
11849;BMP180;5983;49.966;8.052;2023-04-24T06:48:35;99553.00;;;13.60
11849;BMP180;5983;49.966;8.052;2023-04-24T06:51:02;99554.00;;;13.80
11849;BMP180;5983;49.966;8.052;2023-04-24T06:53:29;99562.00;;;13.90
11849;BMP180;5983;49.966;8.052;2023-04-24T06:55:56;99552.00;;;14.00
11849;BMP180;5983;49.966;8.052;2023-04-24T06:58:23;99548.00;;;14.20
11849;BMP180;5983;49.966;8.052;2023-04-24T07:00:50;99553.00;;;14.20
11849;BMP180;5983;49.966;8.052;2023-04-24T07:03:17;99553.00;;;14.20
11849;BMP180;5983;49.966;8.052;2023-04-24T07:05:45;99554.00;;;14.30
11849;BMP180;5983;49.966;8.052;2023-04-24T07:08:13;99561.00;;;14.50
11849;BMP180;5983;49.966;8.052;2023-04-24T07:10:39;99572.00;;;14.50
11849;BMP180;5983;49.966;8.052;2023-04-24T07:13:06;99572.00;;;14.60
11849;BMP180;5983;49.966;8.052;2023-04-24T07:15:33;99580.00;;;14.70
11849;BMP180;5983;49.966;8.052;2023-04-24T07:18:00;99575.00;;;15.00
11849;BMP180;5983;49.966;8.052;2023-04-24T07:20:27;99570.00;;;15.20
11849;BMP180;5983;49.966;8.052;2023-04-24T07:22:55;99578.00;;;15.10
11849;BMP180;5983;49.966;8.052;2023-04-24T07:25:22;99574.00;;;14.90
11849;BMP180;5983;49.966;8.052;2023-04-24T07:27:49;99576.00;;;14.70
11849;BMP180;5983;49.966;8.052;2023-04-24T07:30:15;99583.00;;;14.50
11849;BMP180;5983;49.966;8.052;2023-04-24T07:32:42;99583.00;;;14.40
11849;BMP180;5983;49.966;8.052;2023-04-24T07:35:09;99583.00;;;14.30
11849;BMP180;5983;49.966;8.052;2023-04-24T07:37:36;99582.00;;;14.20
11849;BMP180;5983;49.966;8.052;2023-04-24T07:40:05;99587.00;;;14.30
11849;BMP180;5983;49.966;8.052;2023-04-24T07:42:32;99575.00;;;14.70
11849;BMP180;5983;49.966;8.052;2023-04-24T07:45:00;99577.00;;;15.10
11849;BMP180;5983;49.966;8.052;2023-04-24T07:47:26;99568.00;;;15.40
11849;BMP180;5983;49.966;8.052;2023-04-24T07:49:53;99574.00;;;15.70
11849;BMP180;5983;49.966;8.052;2023-04-24T07:52:20;99568.00;;;15.80
11849;BMP180;5983;49.966;8.052;2023-04-24T07:54:47;99574.00;;;15.90
11849;BMP180;5983;49.966;8.052;2023-04-24T07:57:16;99582.00;;;16.10
11849;BMP180;5983;49.966;8.052;2023-04-24T07:59:43;99573.00;;;16.40
11849;BMP180;5983;49.966;8.052;2023-04-24T08:02:09;99568.00;;;16.30
11849;BMP180;5983;49.966;8.052;2023-04-24T08:04:37;99575.00;;;16.60
11849;BMP180;5983;49.966;8.052;2023-04-24T08:07:04;99580.00;;;16.60
11849;BMP180;5983;49.966;8.052;2023-04-24T08:09:30;99576.00;;;16.70
11849;BMP180;5983;49.966;8.052;2023-04-24T08:11:57;99580.00;;;16.40
11849;BMP180;5983;49.966;8.052;2023-04-24T08:14:25;99584.00;;;16.30
11849;BMP180;5983;49.966;8.052;2023-04-24T08:16:53;99595.00;;;15.90
11849;BMP180;5983;49.966;8.052;2023-04-24T08:19:21;99603.00;;;15.50
11849;BMP180;5983;49.966;8.052;2023-04-24T08:21:48;99613.00;;;15.20
11849;BMP180;5983;49.966;8.052;2023-04-24T08:24:14;99613.00;;;14.70
11849;BMP180;5983;49.966;8.052;2023-04-24T08:26:41;99610.00;;;14.50
11849;BMP180;5983;49.966;8.052;2023-04-24T08:29:09;99620.00;;;14.40
11849;BMP180;5983;49.966;8.052;2023-04-24T08:31:37;99633.00;;;14.10
11849;BMP180;5983;49.966;8.052;2023-04-24T08:34:04;99628.00;;;14.00
11849;BMP180;5983;49.966;8.052;2023-04-24T08:36:31;99619.00;;;14.10
11849;BMP180;5983;49.966;8.052;2023-04-24T08:38:58;99631.00;;;14.20
11849;BMP180;5983;49.966;8.052;2023-04-24T08:41:26;99623.00;;;14.20
11849;BMP180;5983;49.966;8.052;2023-04-24T08:43:54;99634.00;;;14.20
11849;BMP180;5983;49.966;8.052;2023-04-24T08:46:24;99628.00;;;14.40
11849;BMP180;5983;49.966;8.052;2023-04-24T08:48:52;99632.00;;;14.60
11849;BMP180;5983;49.966;8.052;2023-04-24T08:51:19;99623.00;;;14.90
11849;BMP180;5983;49.966;8.052;2023-04-24T08:53:46;99632.00;;;15.30
11849;BMP180;5983;49.966;8.052;2023-04-24T08:56:13;99640.00;;;15.30
11849;BMP180;5983;49.966;8.052;2023-04-24T08:58:42;99642.00;;;15.30
11849;BMP180;5983;49.966;8.052;2023-04-24T09:01:10;99640.00;;;15.20
11849;BMP180;5983;49.966;8.052;2023-04-24T09:03:37;99650.00;;;15.00
11849;BMP180;5983;49.966;8.052;2023-04-24T09:06:06;99644.00;;;14.80
11849;BMP180;5983;49.966;8.052;2023-04-24T09:08:35;99644.00;;;14.80
11849;BMP180;5983;49.966;8.052;2023-04-24T09:11:02;99647.00;;;14.70
11849;BMP180;5983;49.966;8.052;2023-04-24T09:13:30;99658.00;;;14.40
11849;BMP180;5983;49.966;8.052;2023-04-24T09:15:58;99656.00;;;14.20
11849;BMP180;5983;49.966;8.052;2023-04-24T09:18:26;99654.00;;;14.10
11849;BMP180;5983;49.966;8.052;2023-04-24T09:21:00;99655.00;;;14.10
11849;BMP180;5983;49.966;8.052;2023-04-24T09:23:29;99660.00;;;14.30
11849;BMP180;5983;49.966;8.052;2023-04-24T09:25:57;99649.00;;;14.60
11849;BMP180;5983;49.966;8.052;2023-04-24T09:28:26;99651.00;;;14.90
11849;BMP180;5983;49.966;8.052;2023-04-24T09:31:07;99664.00;;;14.90
11849;BMP180;5983;49.966;8.052;2023-04-24T09:33:34;99660.00;;;14.90
11849;BMP180;5983;49.966;8.052;2023-04-24T09:36:01;99653.00;;;14.50
11849;BMP180;5983;49.966;8.052;2023-04-24T09:38:33;99657.00;;;14.30
11849;BMP180;5983;49.966;8.052;2023-04-24T09:41:01;99673.00;;;13.90
11849;BMP180;5983;49.966;8.052;2023-04-24T09:43:29;99675.00;;;13.70
11849;BMP180;5983;49.966;8.052;2023-04-24T09:45:57;99673.00;;;13.40
11849;BMP180;5983;49.966;8.052;2023-04-24T09:48:31;99674.00;;;13.30
11849;BMP180;5983;49.966;8.052;2023-04-24T09:50:58;99665.00;;;13.30
11849;BMP180;5983;49.966;8.052;2023-04-24T09:53:27;99686.00;;;13.20
11849;BMP180;5983;49.966;8.052;2023-04-24T09:55:55;99694.00;;;13.20
11849;BMP180;5983;49.966;8.052;2023-04-24T09:58:26;99697.00;;;13.40
11849;BMP180;5983;49.966;8.052;2023-04-24T10:00:53;99693.00;;;13.40
11849;BMP180;5983;49.966;8.052;2023-04-24T10:03:21;99695.00;;;13.30
11849;BMP180;5983;49.966;8.052;2023-04-24T10:05:47;99694.00;;;13.20
11849;BMP180;5983;49.966;8.052;2023-04-24T10:08:14;99690.00;;;13.10
11849;BMP180;5983;49.966;8.052;2023-04-24T10:10:42;99707.00;;;13.10
11849;BMP180;5983;49.966;8.052;2023-04-24T10:13:12;99705.00;;;13.10
11849;BMP180;5983;49.966;8.052;2023-04-24T10:15:40;99709.00;;;13.10
11849;BMP180;5983;49.966;8.052;2023-04-24T10:18:08;99714.00;;;13.00
11849;BMP180;5983;49.966;8.052;2023-04-24T10:20:37;99724.00;;;13.00
11849;BMP180;5983;49.966;8.052;2023-04-24T10:23:05;99744.00;;;13.00
11849;BMP180;5983;49.966;8.052;2023-04-24T10:25:35;99737.00;;;13.00
11849;BMP180;5983;49.966;8.052;2023-04-24T10:28:02;99742.00;;;13.00
11849;BMP180;5983;49.966;8.052;2023-04-24T10:30:32;99746.00;;;12.90
11849;BMP180;5983;49.966;8.052;2023-04-24T10:33:01;99756.00;;;12.90
11849;BMP180;5983;49.966;8.052;2023-04-24T10:35:31;99757.00;;;13.00
11849;BMP180;5983;49.966;8.052;2023-04-24T10:37:59;99761.00;;;13.00
11849;BMP180;5983;49.966;8.052;2023-04-24T10:40:30;99764.00;;;13.10
11849;BMP180;5983;49.966;8.052;2023-04-24T10:42:58;99761.00;;;13.10
11849;BMP180;5983;49.966;8.052;2023-04-24T10:45:25;99766.00;;;12.90
11849;BMP180;5983;49.966;8.052;2023-04-24T10:47:56;99767.00;;;12.80
11849;BMP180;5983;49.966;8.052;2023-04-24T10:50:24;99766.00;;;12.70
11849;BMP180;5983;49.966;8.052;2023-04-24T10:52:51;99774.00;;;12.60
11849;BMP180;5983;49.966;8.052;2023-04-24T10:55:41;99767.00;;;12.60
11849;BMP180;5983;49.966;8.052;2023-04-24T10:58:08;99767.00;;;12.80
11849;BMP180;5983;49.966;8.052;2023-04-24T11:00:36;99770.00;;;12.80
11849;BMP180;5983;49.966;8.052;2023-04-24T11:03:06;99776.00;;;12.90
11849;BMP180;5983;49.966;8.052;2023-04-24T11:05:50;99775.00;;;13.00
11849;BMP180;5983;49.966;8.052;2023-04-24T11:08:25;99773.00;;;13.00
11849;BMP180;5983;49.966;8.052;2023-04-24T11:10:57;99772.00;;;13.10
11849;BMP180;5983;49.966;8.052;2023-04-24T11:13:25;99764.00;;;13.10
11849;BMP180;5983;49.966;8.052;2023-04-24T11:16:14;99755.00;;;13.30
11849;BMP180;5983;49.966;8.052;2023-04-24T11:18:43;99758.00;;;13.60
11849;BMP180;5983;49.966;8.052;2023-04-24T11:21:18;99756.00;;;13.90
11849;BMP180;5983;49.966;8.052;2023-04-24T11:23:45;99755.00;;;14.20
11849;BMP180;5983;49.966;8.052;2023-04-24T11:26:12;99767.00;;;14.40
11849;BMP180;5983;49.966;8.052;2023-04-24T11:28:49;99772.00;;;14.70
11849;BMP180;5983;49.966;8.052;2023-04-24T11:31:36;99750.00;;;15.40
11849;BMP180;5983;49.966;8.052;2023-04-24T11:34:09;99762.00;;;16.30
11849;BMP180;5983;49.966;8.052;2023-04-24T11:36:36;99775.00;;;17.10
11849;BMP180;5983;49.966;8.052;2023-04-24T11:39:03;99778.00;;;17.60
11849;BMP180;5983;49.966;8.052;2023-04-24T11:41:30;99770.00;;;17.80
11849;BMP180;5983;49.966;8.052;2023-04-24T11:43:57;99768.00;;;17.50
11849;BMP180;5983;49.966;8.052;2023-04-24T11:46:27;99774.00;;;17.40
11849;BMP180;5983;49.966;8.052;2023-04-24T11:48:54;99782.00;;;17.30
11849;BMP180;5983;49.966;8.052;2023-04-24T11:51:22;99781.00;;;17.10
11849;BMP180;5983;49.966;8.052;2023-04-24T11:53:49;99778.00;;;17.10
11849;BMP180;5983;49.966;8.052;2023-04-24T11:56:17;99780.00;;;17.10
11849;BMP180;5983;49.966;8.052;2023-04-24T11:58:45;99785.00;;;16.80
11849;BMP180;5983;49.966;8.052;2023-04-24T12:01:12;99782.00;;;16.80
11849;BMP180;5983;49.966;8.052;2023-04-24T12:03:39;99792.00;;;16.70
11849;BMP180;5983;49.966;8.052;2023-04-24T12:06:09;99789.00;;;16.80
11849;BMP180;5983;49.966;8.052;2023-04-24T12:08:38;99792.00;;;16.90
11849;BMP180;5983;49.966;8.052;2023-04-24T12:11:06;99807.00;;;16.60
11849;BMP180;5983;49.966;8.052;2023-04-24T12:13:33;99809.00;;;16.50
11849;BMP180;5983;49.966;8.052;2023-04-24T12:16:02;99806.00;;;16.50
11849;BMP180;5983;49.966;8.052;2023-04-24T12:18:29;99812.00;;;16.70
11849;BMP180;5983;49.966;8.052;2023-04-24T12:21:17;99823.00;;;16.70
11849;BMP180;5983;49.966;8.052;2023-04-24T12:23:45;99826.00;;;16.80
11849;BMP180;5983;49.966;8.052;2023-04-24T12:26:14;99817.00;;;16.70
11849;BMP180;5983;49.966;8.052;2023-04-24T12:28:42;99823.00;;;16.60
11849;BMP180;5983;49.966;8.052;2023-04-24T12:31:08;99810.00;;;16.50
11849;BMP180;5983;49.966;8.052;2023-04-24T12:33:35;99808.00;;;16.40
11849;BMP180;5983;49.966;8.052;2023-04-24T12:36:02;99819.00;;;16.40
11849;BMP180;5983;49.966;8.052;2023-04-24T12:38:30;99819.00;;;16.40
11849;BMP180;5983;49.966;8.052;2023-04-24T12:41:08;99827.00;;;16.50
11849;BMP180;5983;49.966;8.052;2023-04-24T12:43:35;99822.00;;;16.50
11849;BMP180;5983;49.966;8.052;2023-04-24T12:46:02;99817.00;;;16.60
11849;BMP180;5983;49.966;8.052;2023-04-24T12:48:30;99819.00;;;16.70
11849;BMP180;5983;49.966;8.052;2023-04-24T12:50:57;99809.00;;;16.80
11849;BMP180;5983;49.966;8.052;2023-04-24T12:53:27;99817.00;;;16.60
11849;BMP180;5983;49.966;8.052;2023-04-24T12:55:55;99819.00;;;16.40
11849;BMP180;5983;49.966;8.052;2023-04-24T12:58:23;99823.00;;;16.10
11849;BMP180;5983;49.966;8.052;2023-04-24T13:00:50;99837.00;;;15.90
11849;BMP180;5983;49.966;8.052;2023-04-24T13:03:18;99840.00;;;15.70
11849;BMP180;5983;49.966;8.052;2023-04-24T13:05:45;99830.00;;;15.50
11849;BMP180;5983;49.966;8.052;2023-04-24T13:08:11;99841.00;;;15.40
11849;BMP180;5983;49.966;8.052;2023-04-24T13:10:39;99836.00;;;15.40
11849;BMP180;5983;49.966;8.052;2023-04-24T13:13:06;99848.00;;;15.50
11849;BMP180;5983;49.966;8.052;2023-04-24T13:15:35;99845.00;;;15.70
11849;BMP180;5983;49.966;8.052;2023-04-24T13:18:02;99839.00;;;16.10
11849;BMP180;5983;49.966;8.052;2023-04-24T13:20:28;99837.00;;;16.60
11849;BMP180;5983;49.966;8.052;2023-04-24T13:22:55;99835.00;;;16.90
11849;BMP180;5983;49.966;8.052;2023-04-24T13:25:22;99845.00;;;17.10
11849;BMP180;5983;49.966;8.052;2023-04-24T13:27:50;99832.00;;;17.20
11849;BMP180;5983;49.966;8.052;2023-04-24T13:30:17;99844.00;;;17.00
11849;BMP180;5983;49.966;8.052;2023-04-24T13:32:45;99835.00;;;16.70
11849;BMP180;5983;49.966;8.052;2023-04-24T13:35:12;99851.00;;;16.40
11849;BMP180;5983;49.966;8.052;2023-04-24T13:37:39;99835.00;;;16.10
11849;BMP180;5983;49.966;8.052;2023-04-24T13:40:06;99846.00;;;16.00
11849;BMP180;5983;49.966;8.052;2023-04-24T13:42:33;99850.00;;;15.80
11849;BMP180;5983;49.966;8.052;2023-04-24T13:45:00;99849.00;;;15.70
11849;BMP180;5983;49.966;8.052;2023-04-24T13:47:27;99850.00;;;15.70
11849;BMP180;5983;49.966;8.052;2023-04-24T13:49:55;99857.00;;;15.80
11849;BMP180;5983;49.966;8.052;2023-04-24T13:52:22;99846.00;;;15.70
11849;BMP180;5983;49.966;8.052;2023-04-24T13:54:48;99859.00;;;15.60
11849;BMP180;5983;49.966;8.052;2023-04-24T13:57:15;99848.00;;;15.50
11849;BMP180;5983;49.966;8.052;2023-04-24T13:59:42;99850.00;;;15.60
11849;BMP180;5983;49.966;8.052;2023-04-24T14:02:10;99843.00;;;15.60
11849;BMP180;5983;49.966;8.052;2023-04-24T14:04:37;99847.00;;;15.60
11849;BMP180;5983;49.966;8.052;2023-04-24T14:07:05;99849.00;;;15.60
11849;BMP180;5983;49.966;8.052;2023-04-24T14:09:33;99853.00;;;15.60
11849;BMP180;5983;49.966;8.052;2023-04-24T14:12:00;99846.00;;;15.60
11849;BMP180;5983;49.966;8.052;2023-04-24T14:14:27;99841.00;;;15.70
11849;BMP180;5983;49.966;8.052;2023-04-24T14:16:55;99842.00;;;15.60
11849;BMP180;5983;49.966;8.052;2023-04-24T14:19:22;99845.00;;;15.60
11849;BMP180;5983;49.966;8.052;2023-04-24T14:21:49;99837.00;;;15.60
11849;BMP180;5983;49.966;8.052;2023-04-24T14:24:17;99839.00;;;15.50